createdAt,value
2023-04-16T00:02:04.168Z,98705.53
2023-04-16T00:04:31.293Z,98705.69
2023-04-16T00:06:58.290Z,98704.03
2023-04-16T00:09:25.308Z,98710.09
2023-04-16T00:11:52.341Z,98711.81
2023-04-16T00:14:19.657Z,98692.91
2023-04-16T00:16:46.930Z,98699.72
2023-04-16T00:19:13.850Z,98699.63
2023-04-16T00:21:40.714Z,98706.56
2023-04-16T00:24:07.688Z,98709.13
2023-04-16T00:26:34.703Z,98703.13
2023-04-16T00:29:01.870Z,98718.69
2023-04-16T00:31:30.720Z,98710.00
2023-04-16T00:33:58.698Z,98708.19
2023-04-16T00:36:27.513Z,98715.91
2023-04-16T00:38:55.776Z,98719.38
2023-04-16T00:41:26.461Z,98709.84
2023-04-16T00:43:53.488Z,98700.31
2023-04-16T00:46:23.550Z,98702.91
2023-04-16T00:48:52.518Z,98704.66
2023-04-16T00:51:21.470Z,98704.72
2023-04-16T00:53:48.752Z,98699.44
2023-04-16T00:56:17.713Z,98700.19
2023-04-16T00:58:45.026Z,98708.81
2023-04-16T01:03:53.327Z,98694.19
2023-04-16T01:06:20.914Z,98697.69
2023-04-16T01:08:48.789Z,98696.75
2023-04-16T01:11:16.573Z,98693.22
2023-04-16T01:13:43.598Z,98684.56
2023-04-16T01:16:12.484Z,98684.47
2023-04-16T01:18:39.794Z,98681.97
2023-04-16T01:21:07.172Z,98680.22
2023-04-16T01:23:34.210Z,98679.22
2023-04-16T01:26:01.221Z,98678.44
2023-04-16T01:28:28.062Z,98672.25
2023-04-16T01:30:54.990Z,98679.09
2023-04-16T01:33:22.076Z,98683.53
2023-04-16T01:35:49.059Z,98678.25
2023-04-16T01:38:15.968Z,98666.28
2023-04-16T01:40:42.820Z,98665.38
2023-04-16T01:43:09.662Z,98664.56
2023-04-16T01:45:36.701Z,98659.38
2023-04-16T01:48:04.542Z,98661.97
2023-04-16T01:50:32.018Z,98656.69
2023-04-16T01:52:58.893Z,98659.38
2023-04-16T01:55:26.981Z,98653.06
2023-04-16T01:57:53.820Z,98641.84
2023-04-16T02:00:20.691Z,98638.50
2023-04-16T02:02:49.458Z,98644.53
2023-04-16T02:05:16.781Z,98645.44
2023-04-16T02:07:43.658Z,98646.25
2023-04-16T02:10:10.895Z,98646.06
2023-04-16T02:12:37.796Z,98658.06
2023-04-16T02:15:05.471Z,98653.81
2023-04-16T02:17:32.484Z,98649.81
2023-04-16T02:19:59.408Z,98656.56
2023-04-16T02:22:26.245Z,98655.69
2023-04-16T02:24:53.118Z,98647.03
2023-04-16T02:27:19.917Z,98654.94
2023-04-16T02:29:46.821Z,98651.41
2023-04-16T02:32:13.949Z,98650.59
2023-04-16T02:34:41.763Z,98644.63
2023-04-16T02:37:08.600Z,98650.69
2023-04-16T02:39:35.546Z,98650.59
2023-04-16T02:42:02.938Z,98641.97
2023-04-16T02:44:29.879Z,98644.50
2023-04-16T02:46:56.730Z,98643.66
2023-04-16T02:49:23.655Z,98645.34
2023-04-16T02:51:50.609Z,98644.44
2023-04-16T02:54:17.528Z,98635.88
2023-04-16T02:56:44.361Z,98626.38
2023-04-16T02:59:11.344Z,98626.50
2023-04-16T03:01:38.412Z,98626.44
2023-04-16T03:04:05.675Z,98630.78
2023-04-16T03:06:32.807Z,98629.78
2023-04-16T03:08:59.656Z,98636.78
2023-04-16T03:11:26.661Z,98632.41
2023-04-16T03:13:53.995Z,98624.63
2023-04-16T03:16:20.963Z,98624.50
2023-04-16T03:18:47.831Z,98632.06
2023-04-16T03:21:14.729Z,98629.41
2023-04-16T03:23:41.738Z,98628.63
2023-04-16T03:26:08.621Z,98632.78
2023-04-16T03:28:35.520Z,98635.22
2023-04-16T03:31:02.395Z,98641.16
2023-04-16T03:33:29.474Z,98642.84
2023-04-16T03:35:57.466Z,98650.53
2023-04-16T03:38:26.258Z,98638.56
2023-04-16T03:40:53.122Z,98642.69
2023-04-16T03:43:20.079Z,98648.69
2023-04-16T03:45:47.928Z,98652.09
2023-04-16T03:48:16.050Z,98647.56
2023-04-16T03:50:47.071Z,98658.00
2023-04-16T03:53:14.217Z,98649.38
2023-04-16T03:55:44.327Z,98648.53
2023-04-16T03:58:12.538Z,98643.16
2023-04-16T04:00:42.599Z,98645.69
2023-04-16T04:03:10.706Z,98655.13
2023-04-16T04:05:41.389Z,98654.31
2023-04-16T04:08:08.990Z,98651.81
2023-04-16T04:10:36.376Z,98652.63
2023-04-16T04:13:04.533Z,98666.41
2023-04-16T04:15:31.954Z,98657.78
2023-04-16T04:17:59.844Z,98673.53
2023-04-16T04:20:26.858Z,98660.59
2023-04-16T04:22:53.670Z,98675.56
2023-04-16T04:25:20.501Z,98677.97
2023-04-16T04:27:47.416Z,98678.72
2023-04-16T04:30:14.318Z,98677.84
2023-04-16T04:32:41.173Z,98678.19
2023-04-16T04:35:08.390Z,98679.91
2023-04-16T04:37:35.289Z,98692.16
2023-04-16T04:40:02.169Z,98704.47
2023-04-16T04:42:29.037Z,98689.03
2023-04-16T04:44:56.136Z,98704.63
2023-04-16T04:47:23.061Z,98702.25
2023-04-16T04:49:49.877Z,98702.31
2023-04-16T04:52:16.730Z,98699.63
2023-04-16T04:54:43.517Z,98701.44
2023-04-16T04:57:10.308Z,98706.09
2023-04-16T04:59:37.177Z,98695.63
2023-04-16T05:02:04.209Z,98701.97
2023-04-16T05:04:31.510Z,98688.28
2023-04-16T05:06:58.507Z,98692.47
2023-04-16T05:09:25.487Z,98698.50
2023-04-16T05:11:52.499Z,98694.81
2023-04-16T05:14:19.451Z,98698.50
2023-04-16T05:16:46.386Z,98698.16
2023-04-16T05:19:13.410Z,98701.22
2023-04-16T05:21:40.461Z,98696.22
2023-04-16T05:24:07.343Z,98702.44
2023-04-16T05:26:34.170Z,98699.66
2023-04-16T05:29:01.278Z,98697.81
2023-04-16T05:31:28.132Z,98694.34
2023-04-16T05:33:54.934Z,98705.59
2023-04-16T05:36:21.751Z,98709.63
2023-04-16T05:38:48.602Z,98691.63
2023-04-16T05:41:15.757Z,98694.38
2023-04-16T05:43:42.632Z,98710.69
2023-04-16T05:46:09.482Z,98700.28
2023-04-16T05:48:36.366Z,98701.84
2023-04-16T05:51:03.407Z,98706.31
2023-04-16T05:53:30.283Z,98715.75
2023-04-16T05:55:57.138Z,98706.41
2023-04-16T05:58:24.006Z,98716.94
2023-04-16T06:00:51.452Z,98705.78
2023-04-16T06:03:18.388Z,98705.00
2023-04-16T06:05:45.386Z,98709.44
2023-04-16T06:08:12.193Z,98705.28
2023-04-16T06:10:39.510Z,98711.38
2023-04-16T06:13:06.392Z,98709.63
2023-04-16T06:15:33.210Z,98706.22
2023-04-16T06:18:01.044Z,98705.41
2023-04-16T06:20:28.137Z,98704.59
2023-04-16T06:22:56.178Z,98699.44
2023-04-16T06:25:23.188Z,98697.72
2023-04-16T06:27:50.087Z,98697.75
2023-04-16T06:30:17.091Z,98696.84
2023-04-16T06:32:44.622Z,98702.94
2023-04-16T06:35:11.773Z,98699.47
2023-04-16T06:37:38.839Z,98689.06
2023-04-16T06:40:06.377Z,98691.66
2023-04-16T06:42:33.378Z,98699.41
2023-04-16T06:45:00.817Z,98695.03
2023-04-16T06:47:27.670Z,98696.78
2023-04-16T06:49:54.565Z,98698.34
2023-04-16T06:52:21.364Z,98691.25
2023-04-16T06:54:48.827Z,98699.78
2023-04-16T06:57:16.434Z,98691.00
2023-04-16T06:59:43.245Z,98693.44
2023-04-16T07:02:11.007Z,98696.69
2023-04-16T07:04:37.989Z,98694.63
2023-04-16T07:07:04.829Z,98702.16
2023-04-16T07:09:31.644Z,98703.50
2023-04-16T07:11:58.561Z,98697.00
2023-04-16T07:14:25.500Z,98695.13
2023-04-16T07:16:52.332Z,98696.38
2023-04-16T07:19:19.306Z,98694.16
2023-04-16T07:21:46.743Z,98694.19
2023-04-16T07:24:13.964Z,98693.16
2023-04-16T07:26:41.208Z,98688.69
2023-04-16T07:29:08.453Z,98688.75
2023-04-16T07:31:35.681Z,98689.53
2023-04-16T07:34:02.664Z,98688.31
2023-04-16T07:36:29.541Z,98684.84
2023-04-16T07:38:56.525Z,98684.41
2023-04-16T07:41:23.882Z,98692.72
2023-04-16T07:43:51.069Z,98685.91
2023-04-16T07:46:17.946Z,98688.94
2023-04-16T07:48:44.846Z,98677.16
2023-04-16T07:51:11.781Z,98681.34
2023-04-16T07:53:38.606Z,98675.94
2023-04-16T07:56:05.753Z,98670.69
2023-04-16T07:58:32.566Z,98678.00
2023-04-16T08:00:59.479Z,98673.97
2023-04-16T08:03:26.765Z,98677.16
2023-04-16T08:05:53.778Z,98670.34
2023-04-16T08:08:20.652Z,98673.97
2023-04-16T08:10:47.639Z,98678.53
2023-04-16T08:13:14.439Z,98660.47
2023-04-16T08:15:41.622Z,98670.69
2023-04-16T08:18:13.128Z,98671.72
2023-04-16T08:20:39.970Z,98659.38
2023-04-16T08:23:06.873Z,98661.34
2023-04-16T08:25:33.831Z,98663.97
2023-04-16T08:28:00.891Z,98650.47
2023-04-16T08:30:28.771Z,98652.19
2023-04-16T08:32:55.810Z,98656.72
2023-04-16T08:35:23.246Z,98663.03
2023-04-16T08:37:50.061Z,98647.75
2023-04-16T08:40:17.430Z,98642.75
2023-04-16T08:42:54.542Z,98648.03
2023-04-16T08:45:21.660Z,98644.31
2023-04-16T08:47:50.673Z,98644.94
2023-04-16T08:50:22.938Z,98631.91
2023-04-16T08:52:53.884Z,98643.50
2023-04-16T08:55:31.107Z,98645.25
2023-04-16T08:58:02.190Z,98648.22
2023-04-16T09:00:31.827Z,98650.81
2023-04-16T09:02:59.208Z,98646.31
2023-04-16T09:05:27.932Z,98648.19
2023-04-16T09:07:54.876Z,98651.25
2023-04-16T09:10:22.337Z,98651.03
2023-04-16T09:12:49.199Z,98648.94
2023-04-16T09:15:16.001Z,98638.91
2023-04-16T09:17:42.890Z,98648.81
2023-04-16T09:20:11.279Z,98636.28
2023-04-16T09:22:40.152Z,98641.47
2023-04-16T09:25:07.749Z,98645.09
2023-04-16T09:27:34.618Z,98632.34
2023-04-16T09:30:01.605Z,98625.94
2023-04-16T09:32:29.359Z,98638.69
2023-04-16T09:35:01.269Z,98632.16
2023-04-16T09:37:31.660Z,98636.59
2023-04-16T09:40:04.952Z,98631.28
2023-04-16T09:42:34.364Z,98627.88
2023-04-16T09:45:03.483Z,98639.69
2023-04-16T09:47:43.257Z,98629.53
2023-04-16T09:50:17.728Z,98631.06
2023-04-16T09:52:48.722Z,98628.44
2023-04-16T09:55:15.606Z,98613.28
2023-04-16T09:57:42.592Z,98615.06
2023-04-16T10:00:10.706Z,98606.78
2023-04-16T10:02:42.142Z,98604.06
2023-04-16T10:05:09.811Z,98590.91
2023-04-16T10:07:37.741Z,98598.41
2023-04-16T10:10:05.086Z,98589.38
2023-04-16T10:12:33.058Z,98596.81
2023-04-16T10:15:00.059Z,98587.34
2023-04-16T10:17:30.202Z,98577.94
2023-04-16T10:19:58.548Z,98579.38
2023-04-16T10:22:26.697Z,98571.31
2023-04-16T10:24:54.279Z,98580.50
2023-04-16T10:27:21.433Z,98570.31
2023-04-16T10:29:49.162Z,98580.59
2023-04-16T10:32:18.424Z,98578.44
2023-04-16T10:34:45.793Z,98564.69
2023-04-16T10:37:12.877Z,98571.88
2023-04-16T10:39:39.749Z,98557.78
2023-04-16T10:42:13.598Z,98565.50
2023-04-16T10:44:43.458Z,98574.16
2023-04-16T10:47:13.180Z,98569.38
2023-04-16T10:49:40.761Z,98559.25
2023-04-16T10:52:12.660Z,98566.81
2023-04-16T10:54:40.874Z,98562.94
2023-04-16T10:57:12.365Z,98566.34
2023-04-16T10:59:43.317Z,98566.38
2023-04-16T11:02:18.370Z,98560.72
2023-04-16T11:04:49.524Z,98546.97
2023-04-16T11:07:21.637Z,98552.63
2023-04-16T11:10:04.445Z,98553.31
2023-04-16T11:12:34.362Z,98553.59
2023-04-16T11:15:02.853Z,98556.00
2023-04-16T11:17:38.154Z,98545.50
2023-04-16T11:20:20.975Z,98546.56
2023-04-16T11:22:55.785Z,98546.88
2023-04-16T11:25:29.637Z,98542.19
2023-04-16T11:27:59.065Z,98548.78
2023-04-16T11:30:31.123Z,98541.72
2023-04-16T11:32:58.149Z,98538.75
2023-04-16T11:35:25.370Z,98537.53
2023-04-16T11:37:56.628Z,98534.56
2023-04-16T11:40:23.683Z,98524.97
2023-04-16T11:42:50.903Z,98529.47
2023-04-16T11:45:19.545Z,98524.69
2023-04-16T11:47:55.591Z,98518.47
2023-04-16T11:50:27.350Z,98512.94
2023-04-16T11:53:03.354Z,98514.56
2023-04-16T11:55:30.459Z,98503.91
2023-04-16T11:57:57.326Z,98509.06
2023-04-16T12:00:24.997Z,98508.06
2023-04-16T12:02:54.950Z,98499.69
2023-04-16T12:05:30.424Z,98505.03
2023-04-16T12:07:58.545Z,98495.16
2023-04-16T12:10:25.958Z,98495.75
2023-04-16T12:12:52.831Z,98490.81
2023-04-16T12:15:19.730Z,98493.50
2023-04-16T12:17:46.635Z,98499.91
2023-04-16T12:20:17.836Z,98489.31
2023-04-16T12:22:49.865Z,98484.31
2023-04-16T12:25:18.347Z,98487.06
2023-04-16T12:27:54.130Z,98484.06
2023-04-16T12:30:24.358Z,98487.41
2023-04-16T12:33:14.057Z,98487.88
2023-04-16T12:35:43.537Z,98478.81
2023-04-16T12:38:10.936Z,98485.78
2023-04-16T12:40:38.854Z,98484.44
2023-04-16T12:43:05.737Z,98481.09
2023-04-16T12:45:32.574Z,98488.16
2023-04-16T12:47:59.664Z,98473.72
2023-04-16T12:50:26.677Z,98476.91
2023-04-16T12:52:53.549Z,98469.41
2023-04-16T12:55:20.440Z,98477.44
2023-04-16T12:57:49.067Z,98476.91
2023-04-16T13:00:16.499Z,98477.16
2023-04-16T13:02:43.514Z,98472.13
2023-04-16T13:05:10.591Z,98469.38
2023-04-16T13:07:37.551Z,98469.88
2023-04-16T13:10:06.419Z,98478.97
2023-04-16T13:12:33.261Z,98466.53
2023-04-16T13:15:00.207Z,98467.72
2023-04-16T13:17:27.031Z,98469.31
2023-04-16T13:19:53.871Z,98472.28
2023-04-16T13:22:20.902Z,98470.63
2023-04-16T13:24:47.825Z,98465.59
2023-04-16T13:27:16.217Z,98469.25
2023-04-16T13:29:43.170Z,98467.13
2023-04-16T13:32:10.206Z,98457.84
2023-04-16T13:34:37.263Z,98465.34
2023-04-16T13:37:04.089Z,98471.31
2023-04-16T13:39:31.017Z,98470.03
2023-04-16T13:41:57.830Z,98479.72
2023-04-16T13:44:24.697Z,98479.69
2023-04-16T13:46:51.920Z,98473.63
2023-04-16T13:49:19.588Z,98471.03
2023-04-16T13:51:46.421Z,98472.75
2023-04-16T13:54:13.687Z,98464.84
2023-04-16T13:56:40.983Z,98465.53
2023-04-16T13:59:08.330Z,98464.13
2023-04-16T14:01:35.562Z,98466.59
2023-04-16T14:04:06.770Z,98462.81
2023-04-16T14:06:35.009Z,98457.72
2023-04-16T14:09:02.283Z,98453.22
2023-04-16T14:11:29.125Z,98460.13
2023-04-16T14:13:56.272Z,98467.34
2023-04-16T14:16:23.375Z,98463.38
2023-04-16T14:18:52.104Z,98464.28
2023-04-16T14:21:19.333Z,98472.59
2023-04-16T14:23:46.205Z,98463.47
2023-04-16T14:26:13.235Z,98466.34
2023-04-16T14:28:41.406Z,98462.75
2023-04-16T14:31:08.589Z,98473.38
2023-04-16T14:33:35.504Z,98469.63
2023-04-16T14:36:03.302Z,98479.47
2023-04-16T14:38:31.480Z,98464.44
2023-04-16T14:40:58.433Z,98466.91
2023-04-16T14:43:25.286Z,98465.19
2023-04-16T14:45:52.889Z,98468.69
2023-04-16T14:48:19.807Z,98454.88
2023-04-16T14:50:46.762Z,98459.38
2023-04-16T14:53:13.982Z,98453.94
2023-04-16T14:55:40.893Z,98462.75
2023-04-16T14:58:07.903Z,98462.66
2023-04-16T15:00:35.786Z,98467.00
2023-04-16T15:03:03.060Z,98467.28
2023-04-16T15:05:30.525Z,98467.53
2023-04-16T15:07:57.515Z,98463.22
2023-04-16T15:10:24.417Z,98469.34
2023-04-16T15:12:51.313Z,98465.94
2023-04-16T15:15:18.245Z,98460.59
2023-04-16T15:17:45.226Z,98464.19
2023-04-16T15:20:13.156Z,98465.09
2023-04-16T15:22:40.373Z,98466.38
2023-04-16T15:25:07.756Z,98469.25
2023-04-16T15:27:34.732Z,98473.88
2023-04-16T15:30:01.595Z,98473.44
2023-04-16T15:32:28.648Z,98485.94
2023-04-16T15:34:55.491Z,98485.19
2023-04-16T15:37:22.388Z,98496.34
2023-04-16T15:39:49.896Z,98492.50
2023-04-16T15:42:16.788Z,98494.41
2023-04-16T15:44:43.647Z,98489.97
2023-04-16T15:47:10.476Z,98494.53
2023-04-16T15:49:37.327Z,98491.13
2023-04-16T15:52:04.404Z,98492.22
2023-04-16T15:54:31.985Z,98496.53
2023-04-16T15:56:59.135Z,98493.34
2023-04-16T15:59:27.214Z,98493.41
2023-04-16T16:01:54.330Z,98508.22
2023-04-16T16:04:26.507Z,98493.69
2023-04-16T16:06:53.933Z,98506.81
2023-04-16T16:09:26.533Z,98499.28
2023-04-16T16:11:58.514Z,98507.19
2023-04-16T16:14:26.920Z,98508.13
2023-04-16T16:16:53.863Z,98497.09
2023-04-16T16:19:20.857Z,98504.78
2023-04-16T16:21:47.637Z,98501.50
2023-04-16T16:24:14.686Z,98493.88
2023-04-16T16:26:41.616Z,98500.09
2023-04-16T16:29:08.566Z,98495.88
2023-04-16T16:31:35.657Z,98499.63
2023-04-16T16:34:02.815Z,98514.59
2023-04-16T16:36:29.970Z,98513.19
2023-04-16T16:38:57.123Z,98529.06
2023-04-16T16:41:24.014Z,98530.88
2023-04-16T16:43:51.175Z,98537.91
2023-04-16T16:46:18.046Z,98538.88
2023-04-16T16:48:45.099Z,98537.22
2023-04-16T16:51:11.944Z,98546.88
2023-04-16T16:53:38.744Z,98553.91
2023-04-16T16:56:05.957Z,98554.00
2023-04-16T16:58:33.117Z,98563.72
2023-04-16T17:01:00.069Z,98564.59
2023-04-16T17:03:27.158Z,98572.47
2023-04-16T17:05:56.587Z,98582.97
2023-04-16T17:08:23.961Z,98576.22
2023-04-16T17:10:51.242Z,98576.63
2023-04-16T17:13:21.328Z,98603.75
2023-04-16T17:15:48.150Z,98605.84
2023-04-16T17:18:15.119Z,98602.41
2023-04-16T17:20:42.024Z,98617.66
2023-04-16T17:23:08.875Z,98623.66
2023-04-16T17:25:35.800Z,98629.06
2023-04-16T17:28:03.243Z,98629.53
2023-04-16T17:30:31.375Z,98614.38
2023-04-16T17:32:58.438Z,98630.13
2023-04-16T17:35:25.858Z,98621.78
2023-04-16T17:37:52.697Z,98621.78
2023-04-16T17:40:19.627Z,98636.66
2023-04-16T17:42:46.461Z,98618.47
2023-04-16T17:45:13.753Z,98620.13
2023-04-16T17:47:41.042Z,98622.56
2023-04-16T17:50:11.605Z,98615.56
2023-04-16T17:52:38.536Z,98610.34
2023-04-16T17:55:06.666Z,98603.44
2023-04-16T17:57:34.037Z,98610.34
2023-04-16T18:00:00.821Z,98617.28
2023-04-16T18:02:27.811Z,98622.53
2023-04-16T18:04:54.913Z,98616.44
2023-04-16T18:07:21.890Z,98613.91
2023-04-16T18:09:48.849Z,98619.97
2023-04-16T18:12:16.515Z,98611.34
2023-04-16T18:14:44.918Z,98623.53
2023-04-16T18:17:11.947Z,98620.88
2023-04-16T18:19:40.655Z,98616.56
2023-04-16T18:22:07.669Z,98620.91
2023-04-16T18:24:36.617Z,98621.78
2023-04-16T18:27:04.064Z,98626.13
2023-04-16T18:29:33.902Z,98633.91
2023-04-16T18:32:04.264Z,98622.69
2023-04-16T18:34:31.865Z,98621.75
2023-04-16T18:36:58.700Z,98623.47
2023-04-16T18:39:25.855Z,98620.91
2023-04-16T18:41:52.790Z,98628.66
2023-04-16T18:44:20.100Z,98632.22
2023-04-16T18:46:47.095Z,98637.44
2023-04-16T18:49:14.142Z,98638.47
2023-04-16T18:51:42.164Z,98648.81
2023-04-16T18:54:09.397Z,98638.50
2023-04-16T18:56:36.337Z,98648.84
2023-04-16T18:59:03.240Z,98645.38
2023-04-16T19:01:30.136Z,98644.47
2023-04-16T19:03:57.319Z,98654.88
2023-04-16T19:06:24.347Z,98658.38
2023-04-16T19:08:51.386Z,98655.78
2023-04-16T19:11:18.266Z,98654.06
2023-04-16T19:13:45.266Z,98656.59
2023-04-16T19:16:12.536Z,98655.75
2023-04-16T19:18:39.538Z,98650.53
2023-04-16T19:21:07.314Z,98660.94
2023-04-16T19:23:34.338Z,98656.56
2023-04-16T19:26:01.753Z,98653.16
2023-04-16T19:28:28.895Z,98651.38
2023-04-16T19:30:56.299Z,98664.38
2023-04-16T19:33:23.173Z,98659.22
2023-04-16T19:35:50.145Z,98667.03
2023-04-16T19:38:17.167Z,98661.88
2023-04-16T19:40:46.731Z,98660.13
2023-04-16T19:43:14.383Z,98654.94
2023-04-16T19:45:52.506Z,98648.91
2023-04-16T19:48:20.583Z,98635.94
2023-04-16T19:50:48.046Z,98652.34
2023-04-16T19:53:17.304Z,98649.75
2023-04-16T19:55:44.318Z,98649.75
2023-04-16T19:58:11.265Z,98642.81
2023-04-16T20:00:41.149Z,98642.81
2023-04-16T20:03:08.323Z,98637.63
2023-04-16T20:05:35.386Z,98638.56
2023-04-16T20:08:02.333Z,98643.75
2023-04-16T20:10:31.585Z,98636.84
2023-04-16T20:12:58.747Z,98631.66
2023-04-16T20:15:25.997Z,98631.66
2023-04-16T20:17:53.504Z,98623.03
2023-04-16T20:20:22.741Z,98624.78
2023-04-16T20:22:49.639Z,98625.66
2023-04-16T20:25:19.135Z,98620.47
2023-04-16T20:27:46.371Z,98617.00
2023-04-16T20:30:15.068Z,98625.69
2023-04-16T20:32:41.918Z,98619.63
2023-04-16T20:35:11.386Z,98609.25
2023-04-16T20:37:38.814Z,98618.78
2023-04-16T20:40:08.455Z,98617.91
2023-04-16T20:42:35.591Z,98625.72
2023-04-16T20:45:02.697Z,98619.69
2023-04-16T20:47:29.597Z,98619.69
2023-04-16T20:49:56.537Z,98610.19
2023-04-16T20:52:23.437Z,98611.06
2023-04-16T20:54:52.440Z,98615.41
2023-04-16T20:57:19.417Z,98614.53
2023-04-16T20:59:46.382Z,98626.63
2023-04-16T21:02:14.021Z,98626.63
2023-04-16T21:04:41.089Z,98621.44
2023-04-16T21:07:08.079Z,98608.50
2023-04-16T21:09:34.884Z,98618.91
2023-04-16T21:12:01.968Z,98625.78
2023-04-16T21:14:28.849Z,98621.50
2023-04-16T21:16:55.718Z,98618.88
2023-04-16T21:19:22.688Z,98614.53
2023-04-16T21:21:49.610Z,98622.31
2023-04-16T21:24:16.658Z,98624.06
2023-04-16T21:26:43.459Z,98624.94
2023-04-16T21:29:10.456Z,98631.91
2023-04-16T21:31:37.448Z,98637.06
2023-04-16T21:34:04.351Z,98640.53
2023-04-16T21:36:33.196Z,98641.41
2023-04-16T21:38:59.969Z,98636.19
2023-04-16T21:41:26.963Z,98637.06
2023-04-16T21:43:53.939Z,98638.81
2023-04-16T21:46:21.478Z,98635.34
2023-04-16T21:48:48.641Z,98635.34
2023-04-16T21:51:15.939Z,98625.81
2023-04-16T21:53:42.774Z,98627.53
2023-04-16T21:56:09.694Z,98634.50
2023-04-16T21:58:36.667Z,98645.75
2023-04-16T22:01:03.543Z,98650.06
2023-04-16T22:03:31.251Z,98637.94
2023-04-16T22:06:01.259Z,98640.53
2023-04-16T22:08:29.104Z,98645.75
2023-04-16T22:11:01.703Z,98642.25
2023-04-16T22:13:32.591Z,98643.16
2023-04-16T22:16:02.716Z,98638.78
2023-04-16T22:18:33.097Z,98644.88
2023-04-16T22:21:00.252Z,98641.44
2023-04-16T22:23:27.150Z,98643.16
2023-04-16T22:25:55.535Z,98641.44
2023-04-16T22:28:23.212Z,98647.50
2023-04-16T22:30:50.108Z,98645.78
2023-04-16T22:33:17.052Z,98649.25
2023-04-16T22:35:43.937Z,98635.41
2023-04-16T22:38:10.901Z,98651.84
2023-04-16T22:40:37.865Z,98657.88
2023-04-16T22:43:05.530Z,98651.84
2023-04-16T22:45:32.367Z,98644.91
2023-04-16T22:47:59.349Z,98645.75
2023-04-16T22:50:26.282Z,98646.63
2023-04-16T22:52:53.084Z,98640.56
2023-04-16T22:55:20.033Z,98637.09
2023-04-16T22:57:47.679Z,98642.28
2023-04-16T23:00:18.303Z,98643.16
2023-04-16T23:02:45.762Z,98637.97
2023-04-16T23:05:12.697Z,98629.28
2023-04-16T23:07:39.612Z,98637.09
2023-04-16T23:10:08.818Z,98639.69
2023-04-16T23:12:38.943Z,98642.25
2023-04-16T23:15:06.967Z,98632.75
2023-04-16T23:17:34.066Z,98633.59
2023-04-16T23:20:01.106Z,98622.34
2023-04-16T23:22:28.166Z,98624.97
2023-04-16T23:24:55.092Z,98622.38
2023-04-16T23:27:22.079Z,98632.75
2023-04-16T23:29:49.002Z,98634.47
2023-04-16T23:32:15.923Z,98627.53
2023-04-16T23:34:42.775Z,98621.47
2023-04-16T23:37:09.749Z,98619.72
2023-04-16T23:39:36.594Z,98611.97
2023-04-16T23:42:03.557Z,98609.38
2023-04-16T23:44:30.773Z,98609.38
2023-04-16T23:46:57.702Z,98605.03
2023-04-16T23:49:25.248Z,98605.91
2023-04-16T23:51:52.344Z,98597.25
2023-04-16T23:54:19.486Z,98588.59
2023-04-16T23:56:46.507Z,98588.63
2023-04-16T23:59:13.891Z,98597.28
